Terminal Aerodrome Forecast
Issued by NWS

Home | Current Version | Previous Version | Text Only | Print | Product List | Glossary On
Versions: 1 2 3 4 5 6 7 8 9 10 11 12 13 14 15 16 17 18 19 20 21 22 23 24 25 26 27 28 29 30 31
000
FTUS44 KFWD 021100
TAFDAL
TAF
KDAL 021125Z 0212/0312 18010KT P6SM SCT025 SCT120
      TEMPO 0212/0213 BKN015
     FM021700 21014KT P6SM SCT050
     FM022200 24014KT 4SM TSRA BKN040CB OVC100
     FM030000 32013KT P6SM SCT150 BKN250
     FM030600 34010KT P6SM SKC=

USA.gov is the U.S. government's official web portal to all federal, state and local government web resources and services.